sensor_id;sensor_type;location;lat;lon;timestamp;P1;durP1;ratioP1;P2;durP2;ratioP2
52508;SDS011;38420;53.150;6.370;2023-10-31T00:00:42;18.42;;;17.13;;
52508;SDS011;38420;53.150;6.370;2023-10-31T00:03:07;16.20;;;15.15;;
52508;SDS011;38420;53.150;6.370;2023-10-31T00:05:33;17.50;;;16.15;;
52508;SDS011;38420;53.150;6.370;2023-10-31T00:07:59;18.77;;;17.13;;
52508;SDS011;38420;53.150;6.370;2023-10-31T00:10:24;16.77;;;15.43;;
52508;SDS011;38420;53.150;6.370;2023-10-31T00:12:50;18.48;;;17.17;;
52508;SDS011;38420;53.150;6.370;2023-10-31T00:15:15;22.55;;;21.33;;
52508;SDS011;38420;53.150;6.370;2023-10-31T00:17:41;26.58;;;24.70;;
52508;SDS011;38420;53.150;6.370;2023-10-31T00:20:07;39.22;;;36.50;;
52508;SDS011;38420;53.150;6.370;2023-10-31T00:22:32;45.17;;;42.47;;
52508;SDS011;38420;53.150;6.370;2023-10-31T00:24:58;45.58;;;43.03;;
52508;SDS011;38420;53.150;6.370;2023-10-31T00:27:24;47.78;;;45.25;;
52508;SDS011;38420;53.150;6.370;2023-10-31T00:29:49;48.85;;;46.25;;
52508;SDS011;38420;53.150;6.370;2023-10-31T00:32:15;54.22;;;51.42;;
52508;SDS011;38420;53.150;6.370;2023-10-31T00:34:40;54.38;;;51.38;;
52508;SDS011;38420;53.150;6.370;2023-10-31T00:37:06;59.15;;;55.95;;
52508;SDS011;38420;53.150;6.370;2023-10-31T00:39:31;58.28;;;55.20;;
52508;SDS011;38420;53.150;6.370;2023-10-31T00:41:59;57.85;;;54.55;;
52508;SDS011;38420;53.150;6.370;2023-10-31T00:44:24;52.38;;;49.70;;
52508;SDS011;38420;53.150;6.370;2023-10-31T00:46:50;57.47;;;54.33;;
52508;SDS011;38420;53.150;6.370;2023-10-31T00:49:15;57.42;;;54.15;;
52508;SDS011;38420;53.150;6.370;2023-10-31T00:51:41;58.72;;;55.15;;
52508;SDS011;38420;53.150;6.370;2023-10-31T00:54:06;57.20;;;54.10;;
52508;SDS011;38420;53.150;6.370;2023-10-31T00:56:32;63.65;;;59.88;;
52508;SDS011;38420;53.150;6.370;2023-10-31T00:58:58;65.57;;;61.33;;
52508;SDS011;38420;53.150;6.370;2023-10-31T01:01:23;66.68;;;63.05;;
52508;SDS011;38420;53.150;6.370;2023-10-31T01:03:49;67.00;;;63.53;;
52508;SDS011;38420;53.150;6.370;2023-10-31T01:06:14;67.50;;;63.60;;
52508;SDS011;38420;53.150;6.370;2023-10-31T01:08:40;66.05;;;62.38;;
52508;SDS011;38420;53.150;6.370;2023-10-31T01:11:05;69.57;;;65.47;;
52508;SDS011;38420;53.150;6.370;2023-10-31T01:13:31;67.93;;;64.03;;
52508;SDS011;38420;53.150;6.370;2023-10-31T01:15:57;70.93;;;66.88;;
52508;SDS011;38420;53.150;6.370;2023-10-31T01:18:22;67.25;;;63.25;;
52508;SDS011;38420;53.150;6.370;2023-10-31T01:20:48;62.17;;;58.60;;
52508;SDS011;38420;53.150;6.370;2023-10-31T01:23:13;55.50;;;52.50;;
52508;SDS011;38420;53.150;6.370;2023-10-31T01:25:39;56.95;;;53.25;;
52508;SDS011;38420;53.150;6.370;2023-10-31T01:28:05;53.63;;;50.85;;
52508;SDS011;38420;53.150;6.370;2023-10-31T01:30:30;56.40;;;53.28;;
52508;SDS011;38420;53.150;6.370;2023-10-31T01:32:56;56.15;;;53.03;;
52508;SDS011;38420;53.150;6.370;2023-10-31T01:35:22;54.15;;;50.80;;
52508;SDS011;38420;53.150;6.370;2023-10-31T01:37:47;56.15;;;52.97;;
52508;SDS011;38420;53.150;6.370;2023-10-31T01:40:13;59.45;;;56.10;;
52508;SDS011;38420;53.150;6.370;2023-10-31T01:42:39;52.88;;;49.97;;
52508;SDS011;38420;53.150;6.370;2023-10-31T01:45:05;46.45;;;43.85;;
52508;SDS011;38420;53.150;6.370;2023-10-31T01:47:31;43.20;;;40.70;;
52508;SDS011;38420;53.150;6.370;2023-10-31T01:49:57;40.58;;;38.28;;
52508;SDS011;38420;53.150;6.370;2023-10-31T01:52:24;40.90;;;38.85;;
52508;SDS011;38420;53.150;6.370;2023-10-31T01:54:50;39.38;;;37.10;;
52508;SDS011;38420;53.150;6.370;2023-10-31T01:57:16;40.05;;;37.85;;
52508;SDS011;38420;53.150;6.370;2023-10-31T01:59:45;39.40;;;37.30;;
52508;SDS011;38420;53.150;6.370;2023-10-31T02:02:11;44.42;;;41.67;;
52508;SDS011;38420;53.150;6.370;2023-10-31T02:04:37;48.20;;;45.40;;
52508;SDS011;38420;53.150;6.370;2023-10-31T02:07:02;53.38;;;50.65;;
52508;SDS011;38420;53.150;6.370;2023-10-31T02:09:28;56.67;;;53.40;;
52508;SDS011;38420;53.150;6.370;2023-10-31T02:11:55;58.63;;;55.38;;
52508;SDS011;38420;53.150;6.370;2023-10-31T02:14:21;61.20;;;57.50;;
52508;SDS011;38420;53.150;6.370;2023-10-31T02:16:48;66.03;;;62.40;;
52508;SDS011;38420;53.150;6.370;2023-10-31T02:19:14;66.53;;;62.55;;
52508;SDS011;38420;53.150;6.370;2023-10-31T02:21:44;68.85;;;65.18;;
52508;SDS011;38420;53.150;6.370;2023-10-31T02:24:09;68.35;;;64.38;;
52508;SDS011;38420;53.150;6.370;2023-10-31T02:26:35;74.28;;;69.95;;
52508;SDS011;38420;53.150;6.370;2023-10-31T02:29:01;76.75;;;72.43;;
52508;SDS011;38420;53.150;6.370;2023-10-31T02:31:27;79.47;;;75.03;;
52508;SDS011;38420;53.150;6.370;2023-10-31T02:33:53;81.57;;;76.70;;
52508;SDS011;38420;53.150;6.370;2023-10-31T02:36:19;77.97;;;73.45;;
52508;SDS011;38420;53.150;6.370;2023-10-31T02:38:45;82.35;;;77.40;;
52508;SDS011;38420;53.150;6.370;2023-10-31T02:41:11;87.93;;;82.43;;
52508;SDS011;38420;53.150;6.370;2023-10-31T02:43:38;88.15;;;82.97;;
52508;SDS011;38420;53.150;6.370;2023-10-31T02:46:04;92.20;;;86.75;;
52508;SDS011;38420;53.150;6.370;2023-10-31T02:48:29;96.93;;;90.88;;
52508;SDS011;38420;53.150;6.370;2023-10-31T02:51:03;96.93;;;90.75;;
52508;SDS011;38420;53.150;6.370;2023-10-31T02:53:32;111.50;;;104.88;;
52508;SDS011;38420;53.150;6.370;2023-10-31T02:55:58;109.88;;;103.25;;
52508;SDS011;38420;53.150;6.370;2023-10-31T02:58:23;109.15;;;102.43;;
52508;SDS011;38420;53.150;6.370;2023-10-31T03:00:49;108.82;;;102.10;;
52508;SDS011;38420;53.150;6.370;2023-10-31T03:03:15;110.07;;;103.43;;
52508;SDS011;38420;53.150;6.370;2023-10-31T03:05:41;108.40;;;101.63;;
52508;SDS011;38420;53.150;6.370;2023-10-31T03:08:06;106.05;;;99.72;;
52508;SDS011;38420;53.150;6.370;2023-10-31T03:10:36;111.95;;;104.85;;
52508;SDS011;38420;53.150;6.370;2023-10-31T03:13:02;116.57;;;109.07;;
52508;SDS011;38420;53.150;6.370;2023-10-31T03:15:28;115.38;;;108.28;;
52508;SDS011;38420;53.150;6.370;2023-10-31T03:17:54;115.65;;;108.45;;
52508;SDS011;38420;53.150;6.370;2023-10-31T03:20:19;118.13;;;111.15;;
52508;SDS011;38420;53.150;6.370;2023-10-31T03:22:45;117.95;;;110.55;;
52508;SDS011;38420;53.150;6.370;2023-10-31T03:25:10;121.78;;;114.22;;
52508;SDS011;38420;53.150;6.370;2023-10-31T03:27:36;119.68;;;112.43;;
52508;SDS011;38420;53.150;6.370;2023-10-31T03:30:01;118.07;;;110.63;;
52508;SDS011;38420;53.150;6.370;2023-10-31T03:32:27;118.97;;;111.65;;
52508;SDS011;38420;53.150;6.370;2023-10-31T03:34:53;121.43;;;113.90;;
52508;SDS011;38420;53.150;6.370;2023-10-31T03:37:18;123.82;;;116.13;;
52508;SDS011;38420;53.150;6.370;2023-10-31T03:39:44;126.93;;;119.13;;
52508;SDS011;38420;53.150;6.370;2023-10-31T03:42:09;119.50;;;112.15;;
52508;SDS011;38420;53.150;6.370;2023-10-31T03:44:35;126.15;;;118.20;;
52508;SDS011;38420;53.150;6.370;2023-10-31T03:47:00;125.75;;;118.22;;
52508;SDS011;38420;53.150;6.370;2023-10-31T03:49:27;124.90;;;117.25;;
52508;SDS011;38420;53.150;6.370;2023-10-31T03:51:52;127.00;;;119.18;;
52508;SDS011;38420;53.150;6.370;2023-10-31T03:54:18;138.07;;;129.35;;
52508;SDS011;38420;53.150;6.370;2023-10-31T03:56:44;132.40;;;124.53;;
52508;SDS011;38420;53.150;6.370;2023-10-31T03:59:09;134.10;;;125.72;;
52508;SDS011;38420;53.150;6.370;2023-10-31T04:01:35;128.45;;;120.65;;
52508;SDS011;38420;53.150;6.370;2023-10-31T04:04:01;127.85;;;120.00;;
52508;SDS011;38420;53.150;6.370;2023-10-31T04:06:26;126.18;;;118.50;;
52508;SDS011;38420;53.150;6.370;2023-10-31T04:08:52;125.70;;;118.40;;
52508;SDS011;38420;53.150;6.370;2023-10-31T04:11:18;128.63;;;121.07;;
52508;SDS011;38420;53.150;6.370;2023-10-31T04:13:43;129.32;;;121.70;;
52508;SDS011;38420;53.150;6.370;2023-10-31T04:16:09;128.05;;;120.13;;
52508;SDS011;38420;53.150;6.370;2023-10-31T04:18:35;126.65;;;118.95;;
52508;SDS011;38420;53.150;6.370;2023-10-31T04:21:01;124.53;;;116.88;;
52508;SDS011;38420;53.150;6.370;2023-10-31T04:23:27;123.68;;;115.95;;
52508;SDS011;38420;53.150;6.370;2023-10-31T04:25:52;118.68;;;111.35;;
52508;SDS011;38420;53.150;6.370;2023-10-31T04:28:18;114.47;;;107.78;;
52508;SDS011;38420;53.150;6.370;2023-10-31T04:30:44;119.43;;;112.55;;
52508;SDS011;38420;53.150;6.370;2023-10-31T04:33:10;114.13;;;107.55;;
52508;SDS011;38420;53.150;6.370;2023-10-31T04:35:35;109.78;;;103.40;;
52508;SDS011;38420;53.150;6.370;2023-10-31T04:38:01;106.03;;;100.05;;
52508;SDS011;38420;53.150;6.370;2023-10-31T04:40:26;101.90;;;96.07;;
52508;SDS011;38420;53.150;6.370;2023-10-31T04:42:52;100.97;;;95.70;;
52508;SDS011;38420;53.150;6.370;2023-10-31T04:45:18;96.90;;;91.35;;
52508;SDS011;38420;53.150;6.370;2023-10-31T04:47:43;94.93;;;89.70;;
52508;SDS011;38420;53.150;6.370;2023-10-31T04:50:09;94.40;;;89.47;;
52508;SDS011;38420;53.150;6.370;2023-10-31T04:52:35;99.78;;;94.30;;
52508;SDS011;38420;53.150;6.370;2023-10-31T04:55:00;96.43;;;90.75;;
52508;SDS011;38420;53.150;6.370;2023-10-31T04:57:26;94.80;;;89.72;;
52508;SDS011;38420;53.150;6.370;2023-10-31T04:59:52;91.20;;;86.30;;
52508;SDS011;38420;53.150;6.370;2023-10-31T05:02:21;91.10;;;86.20;;
52508;SDS011;38420;53.150;6.370;2023-10-31T05:04:47;90.53;;;85.65;;
52508;SDS011;38420;53.150;6.370;2023-10-31T05:07:15;85.93;;;81.60;;
52508;SDS011;38420;53.150;6.370;2023-10-31T05:09:44;80.55;;;76.22;;
52508;SDS011;38420;53.150;6.370;2023-10-31T05:12:09;80.53;;;76.28;;
52508;SDS011;38420;53.150;6.370;2023-10-31T05:14:35;80.07;;;75.72;;
52508;SDS011;38420;53.150;6.370;2023-10-31T05:17:01;82.38;;;77.90;;
52508;SDS011;38420;53.150;6.370;2023-10-31T05:19:27;80.13;;;76.03;;
52508;SDS011;38420;53.150;6.370;2023-10-31T05:21:52;80.30;;;76.25;;
52508;SDS011;38420;53.150;6.370;2023-10-31T05:24:18;83.70;;;79.25;;
52508;SDS011;38420;53.150;6.370;2023-10-31T05:26:44;83.38;;;79.07;;
52508;SDS011;38420;53.150;6.370;2023-10-31T05:29:10;83.90;;;79.50;;
52508;SDS011;38420;53.150;6.370;2023-10-31T05:31:36;86.88;;;82.43;;
52508;SDS011;38420;53.150;6.370;2023-10-31T05:34:01;90.35;;;85.60;;
52508;SDS011;38420;53.150;6.370;2023-10-31T05:36:28;93.68;;;88.53;;
52508;SDS011;38420;53.150;6.370;2023-10-31T05:38:54;94.22;;;89.18;;
52508;SDS011;38420;53.150;6.370;2023-10-31T05:41:20;98.25;;;92.90;;
52508;SDS011;38420;53.150;6.370;2023-10-31T05:43:46;94.07;;;88.88;;
52508;SDS011;38420;53.150;6.370;2023-10-31T05:46:11;99.93;;;94.20;;
52508;SDS011;38420;53.150;6.370;2023-10-31T05:48:40;104.45;;;98.75;;
52508;SDS011;38420;53.150;6.370;2023-10-31T05:51:15;100.13;;;94.50;;
52508;SDS011;38420;53.150;6.370;2023-10-31T05:53:42;101.35;;;95.72;;
52508;SDS011;38420;53.150;6.370;2023-10-31T05:56:09;106.85;;;100.75;;
52508;SDS011;38420;53.150;6.370;2023-10-31T05:58:37;102.75;;;96.85;;
52508;SDS011;38420;53.150;6.370;2023-10-31T06:01:03;104.50;;;98.43;;
52508;SDS011;38420;53.150;6.370;2023-10-31T06:03:29;112.18;;;105.57;;
52508;SDS011;38420;53.150;6.370;2023-10-31T06:05:55;111.97;;;105.38;;
52508;SDS011;38420;53.150;6.370;2023-10-31T06:08:20;110.05;;;103.65;;
52508;SDS011;38420;53.150;6.370;2023-10-31T06:10:46;116.28;;;109.43;;
52508;SDS011;38420;53.150;6.370;2023-10-31T06:13:11;118.68;;;111.60;;
52508;SDS011;38420;53.150;6.370;2023-10-31T06:15:37;119.55;;;112.25;;
52508;SDS011;38420;53.150;6.370;2023-10-31T06:18:03;119.90;;;112.65;;
52508;SDS011;38420;53.150;6.370;2023-10-31T06:20:28;120.15;;;113.18;;
52508;SDS011;38420;53.150;6.370;2023-10-31T06:22:54;119.93;;;112.82;;
52508;SDS011;38420;53.150;6.370;2023-10-31T06:25:19;123.82;;;116.43;;
52508;SDS011;38420;53.150;6.370;2023-10-31T06:27:45;125.28;;;117.55;;
52508;SDS011;38420;53.150;6.370;2023-10-31T06:30:11;123.80;;;115.97;;
52508;SDS011;38420;53.150;6.370;2023-10-31T06:32:37;122.32;;;114.78;;
52508;SDS011;38420;53.150;6.370;2023-10-31T06:35:05;117.20;;;110.07;;
52508;SDS011;38420;53.150;6.370;2023-10-31T06:37:31;114.60;;;107.43;;
52508;SDS011;38420;53.150;6.370;2023-10-31T06:39:56;113.55;;;106.50;;
52508;SDS011;38420;53.150;6.370;2023-10-31T06:42:22;107.18;;;100.65;;
52508;SDS011;38420;53.150;6.370;2023-10-31T06:44:47;109.93;;;103.15;;
52508;SDS011;38420;53.150;6.370;2023-10-31T06:47:13;107.18;;;100.60;;
52508;SDS011;38420;53.150;6.370;2023-10-31T06:49:39;107.78;;;101.22;;
52508;SDS011;38420;53.150;6.370;2023-10-31T06:52:05;106.03;;;99.45;;
52508;SDS011;38420;53.150;6.370;2023-10-31T06:54:30;107.35;;;100.88;;
52508;SDS011;38420;53.150;6.370;2023-10-31T06:56:56;106.65;;;100.28;;
52508;SDS011;38420;53.150;6.370;2023-10-31T06:59:22;101.07;;;95.10;;
52508;SDS011;38420;53.150;6.370;2023-10-31T07:01:48;99.20;;;93.45;;
52508;SDS011;38420;53.150;6.370;2023-10-31T07:04:14;102.38;;;96.38;;
52508;SDS011;38420;53.150;6.370;2023-10-31T07:06:39;102.22;;;96.22;;
52508;SDS011;38420;53.150;6.370;2023-10-31T07:09:05;108.03;;;101.72;;
52508;SDS011;38420;53.150;6.370;2023-10-31T07:11:31;104.22;;;97.90;;
52508;SDS011;38420;53.150;6.370;2023-10-31T07:14:00;107.63;;;100.90;;
52508;SDS011;38420;53.150;6.370;2023-10-31T07:16:27;107.88;;;101.78;;
52508;SDS011;38420;53.150;6.370;2023-10-31T07:18:53;111.97;;;105.53;;
52508;SDS011;38420;53.150;6.370;2023-10-31T07:21:19;110.93;;;104.50;;
52508;SDS011;38420;53.150;6.370;2023-10-31T07:23:44;108.18;;;101.90;;
52508;SDS011;38420;53.150;6.370;2023-10-31T07:26:10;106.03;;;100.18;;
52508;SDS011;38420;53.150;6.370;2023-10-31T07:28:35;110.53;;;104.38;;
52508;SDS011;38420;53.150;6.370;2023-10-31T07:31:01;110.20;;;104.18;;
52508;SDS011;38420;53.150;6.370;2023-10-31T07:33:27;110.63;;;104.25;;
52508;SDS011;38420;53.150;6.370;2023-10-31T07:35:52;111.63;;;105.25;;
52508;SDS011;38420;53.150;6.370;2023-10-31T07:38:18;113.72;;;107.07;;
52508;SDS011;38420;53.150;6.370;2023-10-31T07:40:44;113.38;;;107.03;;
52508;SDS011;38420;53.150;6.370;2023-10-31T07:43:09;113.75;;;107.25;;
52508;SDS011;38420;53.150;6.370;2023-10-31T07:45:35;114.05;;;107.47;;
52508;SDS011;38420;53.150;6.370;2023-10-31T07:48:00;109.32;;;103.13;;
52508;SDS011;38420;53.150;6.370;2023-10-31T07:50:26;111.05;;;104.65;;
52508;SDS011;38420;53.150;6.370;2023-10-31T07:52:52;113.07;;;106.88;;
52508;SDS011;38420;53.150;6.370;2023-10-31T07:55:18;112.50;;;105.93;;
52508;SDS011;38420;53.150;6.370;2023-10-31T07:57:44;116.50;;;109.95;;
52508;SDS011;38420;53.150;6.370;2023-10-31T08:00:10;116.43;;;110.03;;
52508;SDS011;38420;53.150;6.370;2023-10-31T08:02:36;120.82;;;113.95;;
52508;SDS011;38420;53.150;6.370;2023-10-31T08:05:02;119.93;;;112.97;;
52508;SDS011;38420;53.150;6.370;2023-10-31T08:07:28;122.93;;;116.05;;
52508;SDS011;38420;53.150;6.370;2023-10-31T08:09:55;131.57;;;123.80;;
52508;SDS011;38420;53.150;6.370;2023-10-31T08:12:21;129.23;;;121.93;;
52508;SDS011;38420;53.150;6.370;2023-10-31T08:14:47;131.73;;;123.90;;
52508;SDS011;38420;53.150;6.370;2023-10-31T08:17:13;133.73;;;126.18;;
52508;SDS011;38420;53.150;6.370;2023-10-31T08:19:39;129.02;;;121.68;;
52508;SDS011;38420;53.150;6.370;2023-10-31T08:22:04;131.77;;;124.30;;
52508;SDS011;38420;53.150;6.370;2023-10-31T08:24:30;133.85;;;126.40;;
52508;SDS011;38420;53.150;6.370;2023-10-31T08:26:56;133.57;;;125.82;;
52508;SDS011;38420;53.150;6.370;2023-10-31T08:29:21;130.70;;;123.38;;
52508;SDS011;38420;53.150;6.370;2023-10-31T08:31:47;130.88;;;123.40;;
52508;SDS011;38420;53.150;6.370;2023-10-31T08:34:12;129.00;;;121.40;;
52508;SDS011;38420;53.150;6.370;2023-10-31T08:36:38;126.43;;;119.15;;
52508;SDS011;38420;53.150;6.370;2023-10-31T08:39:04;130.07;;;122.80;;
52508;SDS011;38420;53.150;6.370;2023-10-31T08:41:29;139.63;;;131.63;;
52508;SDS011;38420;53.150;6.370;2023-10-31T08:43:55;141.88;;;133.65;;
52508;SDS011;38420;53.150;6.370;2023-10-31T08:46:23;147.68;;;139.00;;
52508;SDS011;38420;53.150;6.370;2023-10-31T08:48:48;152.20;;;143.32;;
52508;SDS011;38420;53.150;6.370;2023-10-31T08:51:14;152.63;;;143.02;;
52508;SDS011;38420;53.150;6.370;2023-10-31T08:53:40;153.35;;;143.80;;
52508;SDS011;38420;53.150;6.370;2023-10-31T08:56:06;149.73;;;140.40;;
52508;SDS011;38420;53.150;6.370;2023-10-31T08:58:32;139.55;;;131.00;;
52508;SDS011;38420;53.150;6.370;2023-10-31T09:00:58;132.32;;;123.60;;
52508;SDS011;38420;53.150;6.370;2023-10-31T09:03:23;130.68;;;121.50;;
52508;SDS011;38420;53.150;6.370;2023-10-31T09:05:49;101.82;;;95.78;;
52508;SDS011;38420;53.150;6.370;2023-10-31T09:08:15;92.57;;;87.10;;
52508;SDS011;38420;53.150;6.370;2023-10-31T09:10:40;72.57;;;68.30;;
52508;SDS011;38420;53.150;6.370;2023-10-31T09:13:07;66.30;;;62.78;;
52508;SDS011;38420;53.150;6.370;2023-10-31T09:15:34;53.58;;;50.67;;
52508;SDS011;38420;53.150;6.370;2023-10-31T09:18:01;40.15;;;37.72;;
52508;SDS011;38420;53.150;6.370;2023-10-31T09:20:27;35.90;;;33.65;;
52508;SDS011;38420;53.150;6.370;2023-10-31T09:22:53;40.42;;;38.30;;
52508;SDS011;38420;53.150;6.370;2023-10-31T09:25:18;37.85;;;35.78;;
52508;SDS011;38420;53.150;6.370;2023-10-31T09:27:44;29.35;;;27.20;;
52508;SDS011;38420;53.150;6.370;2023-10-31T09:30:09;20.60;;;19.10;;
52508;SDS011;38420;53.150;6.370;2023-10-31T09:32:35;11.75;;;10.70;;
52508;SDS011;38420;53.150;6.370;2023-10-31T09:35:01;10.10;;;9.00;;
52508;SDS011;38420;53.150;6.370;2023-10-31T09:37:27;13.25;;;12.15;;
52508;SDS011;38420;53.150;6.370;2023-10-31T09:39:52;13.60;;;12.32;;
52508;SDS011;38420;53.150;6.370;2023-10-31T09:42:18;14.50;;;12.80;;
52508;SDS011;38420;53.150;6.370;2023-10-31T09:44:43;12.57;;;11.77;;
52508;SDS011;38420;53.150;6.370;2023-10-31T09:47:09;11.55;;;10.23;;
52508;SDS011;38420;53.150;6.370;2023-10-31T09:49:35;9.45;;;8.52;;
52508;SDS011;38420;53.150;6.370;2023-10-31T09:52:01;10.70;;;9.70;;
52508;SDS011;38420;53.150;6.370;2023-10-31T09:54:28;9.02;;;6.30;;
52508;SDS011;38420;53.150;6.370;2023-10-31T09:56:55;9.70;;;4.78;;
52508;SDS011;38420;53.150;6.370;2023-10-31T09:59:20;8.35;;;2.85;;
52508;SDS011;38420;53.150;6.370;2023-10-31T10:01:46;7.55;;;2.00;;
52508;SDS011;38420;53.150;6.370;2023-10-31T10:04:12;9.65;;;2.58;;
52508;SDS011;38420;53.150;6.370;2023-10-31T10:06:49;5.00;;;0.90;;
52508;SDS011;38420;53.150;6.370;2023-10-31T10:09:25;7.10;;;1.27;;
52508;SDS011;38420;53.150;6.370;2023-10-31T10:11:52;4.80;;;1.30;;
52508;SDS011;38420;53.150;6.370;2023-10-31T10:14:18;5.78;;;1.20;;
52508;SDS011;38420;53.150;6.370;2023-10-31T10:16:44;5.93;;;1.02;;
52508;SDS011;38420;53.150;6.370;2023-10-31T10:19:16;5.43;;;1.00;;
52508;SDS011;38420;53.150;6.370;2023-10-31T10:21:54;7.00;;;0.82;;
52508;SDS011;38420;53.150;6.370;2023-10-31T10:24:22;5.82;;;0.75;;
52508;SDS011;38420;53.150;6.370;2023-10-31T10:26:48;7.90;;;1.00;;
52508;SDS011;38420;53.150;6.370;2023-10-31T10:29:14;7.25;;;1.08;;
52508;SDS011;38420;53.150;6.370;2023-10-31T10:31:40;7.38;;;0.90;;
52508;SDS011;38420;53.150;6.370;2023-10-31T10:34:07;5.30;;;1.58;;
52508;SDS011;38420;53.150;6.370;2023-10-31T10:36:33;9.65;;;1.38;;
52508;SDS011;38420;53.150;6.370;2023-10-31T10:38:59;6.57;;;2.03;;
52508;SDS011;38420;53.150;6.370;2023-10-31T10:41:26;6.97;;;1.98;;
52508;SDS011;38420;53.150;6.370;2023-10-31T10:43:55;7.72;;;1.70;;
52508;SDS011;38420;53.150;6.370;2023-10-31T10:46:35;6.00;;;1.10;;
52508;SDS011;38420;53.150;6.370;2023-10-31T10:49:05;4.33;;;1.20;;
52508;SDS011;38420;53.150;6.370;2023-10-31T10:51:43;9.30;;;1.38;;
52508;SDS011;38420;53.150;6.370;2023-10-31T10:57:09;7.10;;;1.70;;
52508;SDS011;38420;53.150;6.370;2023-10-31T10:59:45;6.38;;;1.17;;
52508;SDS011;38420;53.150;6.370;2023-10-31T11:02:17;3.53;;;0.80;;
52508;SDS011;38420;53.150;6.370;2023-10-31T11:04:43;8.80;;;1.70;;
52508;SDS011;38420;53.150;6.370;2023-10-31T11:07:10;9.93;;;1.83;;
52508;SDS011;38420;53.150;6.370;2023-10-31T11:09:35;5.35;;;1.20;;
52508;SDS011;38420;53.150;6.370;2023-10-31T11:12:03;5.45;;;0.90;;
52508;SDS011;38420;53.150;6.370;2023-10-31T11:14:30;7.03;;;1.10;;
52508;SDS011;38420;53.150;6.370;2023-10-31T11:16:58;8.80;;;1.88;;
52508;SDS011;38420;53.150;6.370;2023-10-31T11:19:29;7.85;;;2.05;;
52508;SDS011;38420;53.150;6.370;2023-10-31T11:21:57;13.10;;;2.85;;
52508;SDS011;38420;53.150;6.370;2023-10-31T11:24:28;9.10;;;1.90;;
52508;SDS011;38420;53.150;6.370;2023-10-31T11:26:58;7.25;;;1.42;;
52508;SDS011;38420;53.150;6.370;2023-10-31T11:29:25;8.35;;;1.50;;
52508;SDS011;38420;53.150;6.370;2023-10-31T11:31:51;5.63;;;1.27;;
52508;SDS011;38420;53.150;6.370;2023-10-31T11:34:19;7.55;;;1.10;;
52508;SDS011;38420;53.150;6.370;2023-10-31T11:36:45;6.07;;;1.10;;
52508;SDS011;38420;53.150;6.370;2023-10-31T11:39:15;4.53;;;0.60;;
52508;SDS011;38420;53.150;6.370;2023-10-31T11:41:49;7.20;;;1.52;;
52508;SDS011;38420;53.150;6.370;2023-10-31T11:44:18;7.28;;;1.48;;
52508;SDS011;38420;53.150;6.370;2023-10-31T11:46:53;6.70;;;0.85;;
52508;SDS011;38420;53.150;6.370;2023-10-31T11:52:16;8.27;;;1.42;;
52508;SDS011;38420;53.150;6.370;2023-10-31T11:54:42;10.18;;;1.60;;
52508;SDS011;38420;53.150;6.370;2023-10-31T11:57:08;9.75;;;1.38;;
52508;SDS011;38420;53.150;6.370;2023-10-31T11:59:37;4.90;;;0.93;;
52508;SDS011;38420;53.150;6.370;2023-10-31T12:02:16;4.82;;;1.02;;
52508;SDS011;38420;53.150;6.370;2023-10-31T12:04:43;3.80;;;1.05;;
52508;SDS011;38420;53.150;6.370;2023-10-31T12:07:09;6.18;;;1.10;;
52508;SDS011;38420;53.150;6.370;2023-10-31T12:09:47;5.28;;;0.80;;
52508;SDS011;38420;53.150;6.370;2023-10-31T12:12:14;5.63;;;1.15;;
52508;SDS011;38420;53.150;6.370;2023-10-31T12:14:39;4.18;;;0.85;;
52508;SDS011;38420;53.150;6.370;2023-10-31T12:17:05;9.20;;;1.17;;
52508;SDS011;38420;53.150;6.370;2023-10-31T12:19:35;10.82;;;1.42;;
52508;SDS011;38420;53.150;6.370;2023-10-31T12:22:01;7.07;;;1.05;;
52508;SDS011;38420;53.150;6.370;2023-10-31T12:24:28;10.05;;;1.17;;
52508;SDS011;38420;53.150;6.370;2023-10-31T12:26:53;6.13;;;0.80;;
52508;SDS011;38420;53.150;6.370;2023-10-31T12:29:19;7.10;;;0.80;;
52508;SDS011;38420;53.150;6.370;2023-10-31T12:31:49;4.75;;;1.00;;
52508;SDS011;38420;53.150;6.370;2023-10-31T12:34:23;7.35;;;1.70;;
52508;SDS011;38420;53.150;6.370;2023-10-31T12:36:50;7.03;;;1.27;;
52508;SDS011;38420;53.150;6.370;2023-10-31T12:39:18;7.32;;;1.30;;
52508;SDS011;38420;53.150;6.370;2023-10-31T12:41:46;6.03;;;0.93;;
52508;SDS011;38420;53.150;6.370;2023-10-31T12:44:13;4.72;;;1.00;;
52508;SDS011;38420;53.150;6.370;2023-10-31T12:46:47;3.83;;;0.82;;
52508;SDS011;38420;53.150;6.370;2023-10-31T12:49:17;5.72;;;1.27;;
52508;SDS011;38420;53.150;6.370;2023-10-31T12:52:04;7.57;;;1.08;;
52508;SDS011;38420;53.150;6.370;2023-10-31T12:54:33;5.57;;;0.85;;
52508;SDS011;38420;53.150;6.370;2023-10-31T12:57:00;8.10;;;1.25;;
52508;SDS011;38420;53.150;6.370;2023-10-31T12:59:28;8.68;;;0.90;;
52508;SDS011;38420;53.150;6.370;2023-10-31T13:01:53;5.65;;;1.20;;
52508;SDS011;38420;53.150;6.370;2023-10-31T13:04:29;4.75;;;1.38;;
52508;SDS011;38420;53.150;6.370;2023-10-31T13:06:56;11.60;;;1.73;;
52508;SDS011;38420;53.150;6.370;2023-10-31T13:09:30;9.32;;;1.83;;
52508;SDS011;38420;53.150;6.370;2023-10-31T13:12:03;9.63;;;2.13;;
52508;SDS011;38420;53.150;6.370;2023-10-31T13:14:29;15.50;;;2.80;;
52508;SDS011;38420;53.150;6.370;2023-10-31T13:16:55;9.93;;;1.48;;
52508;SDS011;38420;53.150;6.370;2023-10-31T13:19:21;7.30;;;1.42;;
52508;SDS011;38420;53.150;6.370;2023-10-31T13:21:47;7.97;;;2.17;;
52508;SDS011;38420;53.150;6.370;2023-10-31T13:24:13;9.98;;;1.50;;
52508;SDS011;38420;53.150;6.370;2023-10-31T13:26:38;10.00;;;1.95;;
52508;SDS011;38420;53.150;6.370;2023-10-31T13:29:04;6.47;;;1.58;;
52508;SDS011;38420;53.150;6.370;2023-10-31T13:31:29;10.45;;;1.38;;
52508;SDS011;38420;53.150;6.370;2023-10-31T13:33:55;8.40;;;1.52;;
52508;SDS011;38420;53.150;6.370;2023-10-31T13:36:20;7.25;;;1.40;;
52508;SDS011;38420;53.150;6.370;2023-10-31T13:38:47;6.40;;;1.20;;
52508;SDS011;38420;53.150;6.370;2023-10-31T13:41:13;6.75;;;1.58;;
52508;SDS011;38420;53.150;6.370;2023-10-31T13:43:39;5.35;;;1.05;;
52508;SDS011;38420;53.150;6.370;2023-10-31T13:46:05;7.15;;;1.20;;
52508;SDS011;38420;53.150;6.370;2023-10-31T13:48:31;8.90;;;1.70;;
52508;SDS011;38420;53.150;6.370;2023-10-31T13:50:57;3.97;;;1.13;;
52508;SDS011;38420;53.150;6.370;2023-10-31T13:53:22;8.00;;;1.70;;
52508;SDS011;38420;53.150;6.370;2023-10-31T13:55:48;5.00;;;0.95;;
52508;SDS011;38420;53.150;6.370;2023-10-31T13:58:14;9.00;;;1.20;;
52508;SDS011;38420;53.150;6.370;2023-10-31T14:00:39;11.10;;;1.70;;
52508;SDS011;38420;53.150;6.370;2023-10-31T14:03:05;5.28;;;1.73;;
52508;SDS011;38420;53.150;6.370;2023-10-31T14:05:31;7.53;;;1.88;;
52508;SDS011;38420;53.150;6.370;2023-10-31T14:07:56;6.45;;;1.45;;
52508;SDS011;38420;53.150;6.370;2023-10-31T14:10:22;4.60;;;0.80;;
52508;SDS011;38420;53.150;6.370;2023-10-31T14:12:49;3.72;;;0.90;;
52508;SDS011;38420;53.150;6.370;2023-10-31T14:15:15;4.30;;;0.77;;
52508;SDS011;38420;53.150;6.370;2023-10-31T14:17:41;3.83;;;0.68;;
52508;SDS011;38420;53.150;6.370;2023-10-31T14:20:06;3.88;;;0.80;;
52508;SDS011;38420;53.150;6.370;2023-10-31T14:22:32;4.00;;;0.70;;